sensor_id;sensor_type;location;lat;lon;timestamp;temperature;humidity
41437;DHT22;27178;49.460;10.850;2022-12-31T00:01:01;12.60;92.00
41437;DHT22;27178;49.460;10.850;2022-12-31T00:03:29;12.60;92.00
41437;DHT22;27178;49.460;10.850;2022-12-31T00:05:58;12.60;91.90
41437;DHT22;27178;49.460;10.850;2022-12-31T00:08:27;12.60;91.90
41437;DHT22;27178;49.460;10.850;2022-12-31T00:10:55;12.60;91.90
41437;DHT22;27178;49.460;10.850;2022-12-31T00:13:25;12.60;91.90
41437;DHT22;27178;49.460;10.850;2022-12-31T00:15:53;12.60;92.00
41437;DHT22;27178;49.460;10.850;2022-12-31T00:18:21;12.60;92.00
41437;DHT22;27178;49.460;10.850;2022-12-31T00:20:49;12.60;92.00
41437;DHT22;27178;49.460;10.850;2022-12-31T00:23:18;12.60;91.90
41437;DHT22;27178;49.460;10.850;2022-12-31T00:25:46;12.60;91.90
41437;DHT22;27178;49.460;10.850;2022-12-31T00:28:15;12.60;91.90
41437;DHT22;27178;49.460;10.850;2022-12-31T00:30:44;12.60;92.00
41437;DHT22;27178;49.460;10.850;2022-12-31T00:33:13;12.60;92.00
41437;DHT22;27178;49.460;10.850;2022-12-31T00:35:41;12.60;91.90
41437;DHT22;27178;49.460;10.850;2022-12-31T00:38:09;12.70;92.00
41437;DHT22;27178;49.460;10.850;2022-12-31T00:40:37;12.70;92.00
41437;DHT22;27178;49.460;10.850;2022-12-31T00:43:06;12.70;91.90
41437;DHT22;27178;49.460;10.850;2022-12-31T00:45:34;12.70;91.90
41437;DHT22;27178;49.460;10.850;2022-12-31T00:48:04;12.70;91.90
41437;DHT22;27178;49.460;10.850;2022-12-31T00:50:32;12.70;92.00
41437;DHT22;27178;49.460;10.850;2022-12-31T00:53:00;12.70;92.00
41437;DHT22;27178;49.460;10.850;2022-12-31T00:55:29;12.70;92.00
41437;DHT22;27178;49.460;10.850;2022-12-31T00:57:57;12.70;92.00
41437;DHT22;27178;49.460;10.850;2022-12-31T01:00:26;12.70;91.90
41437;DHT22;27178;49.460;10.850;2022-12-31T01:02:54;12.80;91.90
41437;DHT22;27178;49.460;10.850;2022-12-31T01:05:24;12.80;92.00
41437;DHT22;27178;49.460;10.850;2022-12-31T01:07:55;12.80;91.90
41437;DHT22;27178;49.460;10.850;2022-12-31T01:10:24;12.80;91.80
41437;DHT22;27178;49.460;10.850;2022-12-31T01:13:06;12.80;91.80
41437;DHT22;27178;49.460;10.850;2022-12-31T01:15:35;12.80;91.80
41437;DHT22;27178;49.460;10.850;2022-12-31T01:18:05;12.80;91.90
41437;DHT22;27178;49.460;10.850;2022-12-31T01:20:36;12.80;91.80
41437;DHT22;27178;49.460;10.850;2022-12-31T01:23:05;12.80;91.80
41437;DHT22;27178;49.460;10.850;2022-12-31T01:25:34;12.80;91.80
41437;DHT22;27178;49.460;10.850;2022-12-31T01:28:04;12.80;91.90
41437;DHT22;27178;49.460;10.850;2022-12-31T01:30:32;12.90;92.00
41437;DHT22;27178;49.460;10.850;2022-12-31T01:33:01;12.90;91.80
41437;DHT22;27178;49.460;10.850;2022-12-31T01:35:29;12.90;91.90
41437;DHT22;27178;49.460;10.850;2022-12-31T01:38:02;12.90;91.90
41437;DHT22;27178;49.460;10.850;2022-12-31T01:40:35;12.90;92.00
41437;DHT22;27178;49.460;10.850;2022-12-31T01:43:13;12.90;91.90
41437;DHT22;27178;49.460;10.850;2022-12-31T01:45:43;12.90;92.10
41437;DHT22;27178;49.460;10.850;2022-12-31T01:48:15;12.90;92.10
41437;DHT22;27178;49.460;10.850;2022-12-31T01:50:45;13.00;92.10
41437;DHT22;27178;49.460;10.850;2022-12-31T01:53:16;13.00;92.00
41437;DHT22;27178;49.460;10.850;2022-12-31T01:55:48;13.00;92.00
41437;DHT22;27178;49.460;10.850;2022-12-31T01:58:20;13.00;92.00
41437;DHT22;27178;49.460;10.850;2022-12-31T02:00:50;13.00;92.00
41437;DHT22;27178;49.460;10.850;2022-12-31T02:03:20;13.00;92.00
41437;DHT22;27178;49.460;10.850;2022-12-31T02:05:55;13.00;92.00
41437;DHT22;27178;49.460;10.850;2022-12-31T02:08:26;13.00;92.10
41437;DHT22;27178;49.460;10.850;2022-12-31T02:10:54;13.00;92.10
41437;DHT22;27178;49.460;10.850;2022-12-31T02:13:23;13.00;92.20
41437;DHT22;27178;49.460;10.850;2022-12-31T02:15:56;13.10;92.30
41437;DHT22;27178;49.460;10.850;2022-12-31T02:18:31;13.10;92.30
41437;DHT22;27178;49.460;10.850;2022-12-31T02:21:28;13.10;92.40
41437;DHT22;27178;49.460;10.850;2022-12-31T02:24:34;13.10;92.80
41437;DHT22;27178;49.460;10.850;2022-12-31T02:27:09;13.20;92.70
41437;DHT22;27178;49.460;10.850;2022-12-31T02:30:01;13.10;92.40
41437;DHT22;27178;49.460;10.850;2022-12-31T02:32:39;13.20;92.50
41437;DHT22;27178;49.460;10.850;2022-12-31T02:35:13;13.20;92.50
41437;DHT22;27178;49.460;10.850;2022-12-31T02:37:44;13.20;92.50
41437;DHT22;27178;49.460;10.850;2022-12-31T02:40:18;13.20;92.50
41437;DHT22;27178;49.460;10.850;2022-12-31T02:42:47;13.20;93.00
41437;DHT22;27178;49.460;10.850;2022-12-31T02:45:28;13.20;92.60
41437;DHT22;27178;49.460;10.850;2022-12-31T02:48:15;13.20;92.80
41437;DHT22;27178;49.460;10.850;2022-12-31T02:50:54;13.20;92.90
41437;DHT22;27178;49.460;10.850;2022-12-31T02:56:17;13.30;92.90
41437;DHT22;27178;49.460;10.850;2022-12-31T02:58:54;13.30;93.30
41437;DHT22;27178;49.460;10.850;2022-12-31T03:01:47;13.30;92.80
41437;DHT22;27178;49.460;10.850;2022-12-31T03:04:36;13.30;92.80
41437;DHT22;27178;49.460;10.850;2022-12-31T03:07:07;13.30;92.70
41437;DHT22;27178;49.460;10.850;2022-12-31T03:09:36;13.30;92.70
41437;DHT22;27178;49.460;10.850;2022-12-31T03:12:07;13.30;92.80
41437;DHT22;27178;49.460;10.850;2022-12-31T03:14:53;13.30;92.80
41437;DHT22;27178;49.460;10.850;2022-12-31T03:17:23;13.30;92.70
41437;DHT22;27178;49.460;10.850;2022-12-31T03:19:51;13.30;92.70
41437;DHT22;27178;49.460;10.850;2022-12-31T03:22:40;13.30;92.60
41437;DHT22;27178;49.460;10.850;2022-12-31T03:25:11;13.40;92.70
41437;DHT22;27178;49.460;10.850;2022-12-31T03:27:57;13.40;92.60
41437;DHT22;27178;49.460;10.850;2022-12-31T03:30:25;13.30;92.50
41437;DHT22;27178;49.460;10.850;2022-12-31T03:32:56;13.40;92.50
41437;DHT22;27178;49.460;10.850;2022-12-31T03:35:26;13.40;92.40
41437;DHT22;27178;49.460;10.850;2022-12-31T03:37:55;13.40;92.40
41437;DHT22;27178;49.460;10.850;2022-12-31T03:40:26;13.30;92.30
41437;DHT22;27178;49.460;10.850;2022-12-31T03:42:54;13.40;92.30
41437;DHT22;27178;49.460;10.850;2022-12-31T03:45:23;13.40;92.30
41437;DHT22;27178;49.460;10.850;2022-12-31T03:47:52;13.40;92.30
41437;DHT22;27178;49.460;10.850;2022-12-31T03:50:21;13.30;92.30
41437;DHT22;27178;49.460;10.850;2022-12-31T03:52:50;13.40;92.00
41437;DHT22;27178;49.460;10.850;2022-12-31T03:55:18;13.30;92.40
41437;DHT22;27178;49.460;10.850;2022-12-31T03:57:47;13.40;92.50
41437;DHT22;27178;49.460;10.850;2022-12-31T04:00:16;13.40;92.40
41437;DHT22;27178;49.460;10.850;2022-12-31T04:02:46;13.40;92.70
41437;DHT22;27178;49.460;10.850;2022-12-31T04:05:15;13.30;92.20
41437;DHT22;27178;49.460;10.850;2022-12-31T04:07:46;13.30;92.10
41437;DHT22;27178;49.460;10.850;2022-12-31T04:10:16;13.30;92.00
41437;DHT22;27178;49.460;10.850;2022-12-31T04:12:45;13.30;92.00
41437;DHT22;27178;49.460;10.850;2022-12-31T04:15:17;13.30;92.10
41437;DHT22;27178;49.460;10.850;2022-12-31T04:17:46;13.30;92.10
41437;DHT22;27178;49.460;10.850;2022-12-31T04:20:15;13.30;92.10
41437;DHT22;27178;49.460;10.850;2022-12-31T04:22:45;13.30;92.10
41437;DHT22;27178;49.460;10.850;2022-12-31T04:25:13;13.30;92.30
41437;DHT22;27178;49.460;10.850;2022-12-31T04:27:42;13.30;92.40
41437;DHT22;27178;49.460;10.850;2022-12-31T04:30:12;13.30;92.40
41437;DHT22;27178;49.460;10.850;2022-12-31T04:32:41;13.30;92.30
41437;DHT22;27178;49.460;10.850;2022-12-31T04:35:10;13.30;92.30
41437;DHT22;27178;49.460;10.850;2022-12-31T04:37:38;13.30;92.30
41437;DHT22;27178;49.460;10.850;2022-12-31T04:40:09;13.30;92.30
41437;DHT22;27178;49.460;10.850;2022-12-31T04:42:37;13.40;92.40
41437;DHT22;27178;49.460;10.850;2022-12-31T04:45:06;13.40;92.30
41437;DHT22;27178;49.460;10.850;2022-12-31T04:47:34;13.40;92.40
41437;DHT22;27178;49.460;10.850;2022-12-31T04:50:04;13.40;92.40
41437;DHT22;27178;49.460;10.850;2022-12-31T04:52:32;13.40;92.50
41437;DHT22;27178;49.460;10.850;2022-12-31T04:55:10;13.40;92.50
41437;DHT22;27178;49.460;10.850;2022-12-31T04:57:40;13.40;92.50
41437;DHT22;27178;49.460;10.850;2022-12-31T05:00:09;13.50;92.90
41437;DHT22;27178;49.460;10.850;2022-12-31T05:02:37;13.50;92.40
41437;DHT22;27178;49.460;10.850;2022-12-31T05:05:07;13.50;92.30
41437;DHT22;27178;49.460;10.850;2022-12-31T05:07:35;13.50;92.30
41437;DHT22;27178;49.460;10.850;2022-12-31T05:10:05;13.50;92.30
41437;DHT22;27178;49.460;10.850;2022-12-31T05:12:35;13.50;92.40
41437;DHT22;27178;49.460;10.850;2022-12-31T05:15:04;13.50;92.30
41437;DHT22;27178;49.460;10.850;2022-12-31T05:17:32;13.60;92.40
41437;DHT22;27178;49.460;10.850;2022-12-31T05:20:01;13.50;92.30
41437;DHT22;27178;49.460;10.850;2022-12-31T05:22:29;13.60;92.30
41437;DHT22;27178;49.460;10.850;2022-12-31T05:24:58;13.60;92.30
41437;DHT22;27178;49.460;10.850;2022-12-31T05:27:27;13.60;92.20
41437;DHT22;27178;49.460;10.850;2022-12-31T05:29:59;13.60;92.20
41437;DHT22;27178;49.460;10.850;2022-12-31T05:32:27;13.60;92.10
41437;DHT22;27178;49.460;10.850;2022-12-31T05:34:56;13.60;92.10
41437;DHT22;27178;49.460;10.850;2022-12-31T05:37:27;13.60;92.20
41437;DHT22;27178;49.460;10.850;2022-12-31T05:39:56;13.60;92.20
41437;DHT22;27178;49.460;10.850;2022-12-31T05:42:24;13.60;92.20
41437;DHT22;27178;49.460;10.850;2022-12-31T05:44:53;13.60;92.20
41437;DHT22;27178;49.460;10.850;2022-12-31T05:47:22;13.60;92.10
41437;DHT22;27178;49.460;10.850;2022-12-31T05:49:52;13.60;92.10
41437;DHT22;27178;49.460;10.850;2022-12-31T05:52:20;13.70;92.20
41437;DHT22;27178;49.460;10.850;2022-12-31T05:54:48;13.70;92.20
41437;DHT22;27178;49.460;10.850;2022-12-31T05:57:16;13.70;92.10
41437;DHT22;27178;49.460;10.850;2022-12-31T05:59:45;13.70;92.20
41437;DHT22;27178;49.460;10.850;2022-12-31T06:02:13;13.70;92.20
41437;DHT22;27178;49.460;10.850;2022-12-31T06:04:43;13.70;92.20
41437;DHT22;27178;49.460;10.850;2022-12-31T06:07:11;13.80;92.20
41437;DHT22;27178;49.460;10.850;2022-12-31T06:09:40;13.80;92.10
41437;DHT22;27178;49.460;10.850;2022-12-31T06:12:08;13.80;92.10
41437;DHT22;27178;49.460;10.850;2022-12-31T06:14:36;13.80;92.10
41437;DHT22;27178;49.460;10.850;2022-12-31T06:17:11;13.80;92.20
41437;DHT22;27178;49.460;10.850;2022-12-31T06:19:40;13.90;92.20
41437;DHT22;27178;49.460;10.850;2022-12-31T06:22:09;14.00;92.20
41437;DHT22;27178;49.460;10.850;2022-12-31T06:24:38;13.90;92.00
41437;DHT22;27178;49.460;10.850;2022-12-31T06:27:06;14.00;91.90
41437;DHT22;27178;49.460;10.850;2022-12-31T06:29:35;14.00;92.00
41437;DHT22;27178;49.460;10.850;2022-12-31T06:32:04;14.00;92.00
41437;DHT22;27178;49.460;10.850;2022-12-31T06:34:32;14.00;92.00
41437;DHT22;27178;49.460;10.850;2022-12-31T06:37:01;14.00;92.00
41437;DHT22;27178;49.460;10.850;2022-12-31T06:39:30;14.00;92.00
41437;DHT22;27178;49.460;10.850;2022-12-31T06:41:58;13.80;92.00
41437;DHT22;27178;49.460;10.850;2022-12-31T06:44:27;14.10;92.10
41437;DHT22;27178;49.460;10.850;2022-12-31T06:46:55;14.10;92.00
41437;DHT22;27178;49.460;10.850;2022-12-31T06:49:23;14.10;92.00
41437;DHT22;27178;49.460;10.850;2022-12-31T06:51:51;14.10;92.00
41437;DHT22;27178;49.460;10.850;2022-12-31T06:54:20;14.10;92.10
41437;DHT22;27178;49.460;10.850;2022-12-31T06:56:50;14.10;92.10
41437;DHT22;27178;49.460;10.850;2022-12-31T06:59:23;14.20;92.10
41437;DHT22;27178;49.460;10.850;2022-12-31T07:02:05;14.20;92.50
41437;DHT22;27178;49.460;10.850;2022-12-31T07:07:31;14.20;91.90
41437;DHT22;27178;49.460;10.850;2022-12-31T07:10:09;14.30;91.90
41437;DHT22;27178;49.460;10.850;2022-12-31T07:12:57;14.30;91.90
41437;DHT22;27178;49.460;10.850;2022-12-31T07:15:41;14.30;91.80
41437;DHT22;27178;49.460;10.850;2022-12-31T07:18:19;14.30;91.80
41437;DHT22;27178;49.460;10.850;2022-12-31T07:20:51;14.30;91.80
41437;DHT22;27178;49.460;10.850;2022-12-31T07:23:20;14.30;91.80
41437;DHT22;27178;49.460;10.850;2022-12-31T07:25:53;14.30;91.80
41437;DHT22;27178;49.460;10.850;2022-12-31T07:28:37;14.30;91.80
41437;DHT22;27178;49.460;10.850;2022-12-31T07:31:15;14.30;91.90
41437;DHT22;27178;49.460;10.850;2022-12-31T07:33:50;14.30;91.90
41437;DHT22;27178;49.460;10.850;2022-12-31T07:36:37;14.30;91.90
41437;DHT22;27178;49.460;10.850;2022-12-31T07:39:11;14.30;91.90
41437;DHT22;27178;49.460;10.850;2022-12-31T07:41:51;14.30;91.80
41437;DHT22;27178;49.460;10.850;2022-12-31T07:44:32;14.30;91.90
41437;DHT22;27178;49.460;10.850;2022-12-31T07:47:04;14.30;91.90
41437;DHT22;27178;49.460;10.850;2022-12-31T07:49:33;14.30;91.80
41437;DHT22;27178;49.460;10.850;2022-12-31T07:52:01;14.30;91.80
41437;DHT22;27178;49.460;10.850;2022-12-31T07:54:30;14.40;91.80
41437;DHT22;27178;49.460;10.850;2022-12-31T07:56:59;14.40;91.80
41437;DHT22;27178;49.460;10.850;2022-12-31T07:59:41;14.40;91.80
41437;DHT22;27178;49.460;10.850;2022-12-31T08:02:18;14.40;91.90
41437;DHT22;27178;49.460;10.850;2022-12-31T08:04:53;14.40;91.80
41437;DHT22;27178;49.460;10.850;2022-12-31T08:07:30;14.40;91.70
41437;DHT22;27178;49.460;10.850;2022-12-31T08:10:06;14.40;91.80
41437;DHT22;27178;49.460;10.850;2022-12-31T08:12:44;14.50;91.70
41437;DHT22;27178;49.460;10.850;2022-12-31T08:15:17;14.50;91.60
41437;DHT22;27178;49.460;10.850;2022-12-31T08:17:51;14.50;91.70
41437;DHT22;27178;49.460;10.850;2022-12-31T08:20:20;14.50;92.10
41437;DHT22;27178;49.460;10.850;2022-12-31T08:25:59;14.50;91.80
41437;DHT22;27178;49.460;10.850;2022-12-31T08:28:44;14.50;91.70
41437;DHT22;27178;49.460;10.850;2022-12-31T08:31:17;14.60;91.80
41437;DHT22;27178;49.460;10.850;2022-12-31T08:33:52;14.60;91.80
41437;DHT22;27178;49.460;10.850;2022-12-31T08:36:38;14.60;91.80
41437;DHT22;27178;49.460;10.850;2022-12-31T08:39:19;14.60;91.80
41437;DHT22;27178;49.460;10.850;2022-12-31T08:41:53;14.60;91.70
41437;DHT22;27178;49.460;10.850;2022-12-31T08:44:29;14.70;91.70
41437;DHT22;27178;49.460;10.850;2022-12-31T08:47:08;14.70;91.60
41437;DHT22;27178;49.460;10.850;2022-12-31T08:49:39;14.70;91.80
41437;DHT22;27178;49.460;10.850;2022-12-31T08:52:14;14.80;91.70
41437;DHT22;27178;49.460;10.850;2022-12-31T08:54:43;14.80;91.60
41437;DHT22;27178;49.460;10.850;2022-12-31T08:57:18;14.80;91.60
41437;DHT22;27178;49.460;10.850;2022-12-31T08:59:59;14.80;92.00
41437;DHT22;27178;49.460;10.850;2022-12-31T09:05:31;14.90;91.50
41437;DHT22;27178;49.460;10.850;2022-12-31T09:08:08;14.80;91.60
41437;DHT22;27178;49.460;10.850;2022-12-31T09:10:45;14.90;91.60
41437;DHT22;27178;49.460;10.850;2022-12-31T09:13:23;14.20;91.30
41437;DHT22;27178;49.460;10.850;2022-12-31T09:15:56;14.90;91.40
41437;DHT22;27178;49.460;10.850;2022-12-31T09:18:29;14.90;91.40
41437;DHT22;27178;49.460;10.850;2022-12-31T09:20:59;14.90;91.40
41437;DHT22;27178;49.460;10.850;2022-12-31T09:23:28;14.90;91.40
41437;DHT22;27178;49.460;10.850;2022-12-31T09:25:59;14.90;91.40
41437;DHT22;27178;49.460;10.850;2022-12-31T09:28:37;14.90;91.40
41437;DHT22;27178;49.460;10.850;2022-12-31T09:31:13;14.90;91.30
41437;DHT22;27178;49.460;10.850;2022-12-31T09:33:49;14.90;91.20
41437;DHT22;27178;49.460;10.850;2022-12-31T09:36:22;14.90;91.10
41437;DHT22;27178;49.460;10.850;2022-12-31T09:38:59;14.90;91.10
41437;DHT22;27178;49.460;10.850;2022-12-31T09:42:00;14.90;91.10
41437;DHT22;27178;49.460;10.850;2022-12-31T09:44:58;14.90;91.20
41437;DHT22;27178;49.460;10.850;2022-12-31T09:50:46;14.90;91.10
41437;DHT22;27178;49.460;10.850;2022-12-31T09:53:30;14.90;91.20
41437;DHT22;27178;49.460;10.850;2022-12-31T09:56:07;15.00;91.20
41437;DHT22;27178;49.460;10.850;2022-12-31T09:58:43;15.00;91.20
41437;DHT22;27178;49.460;10.850;2022-12-31T10:01:26;15.00;91.60
41437;DHT22;27178;49.460;10.850;2022-12-31T10:04:22;15.00;91.10
41437;DHT22;27178;49.460;10.850;2022-12-31T10:07:04;15.00;91.10
41437;DHT22;27178;49.460;10.850;2022-12-31T10:09:41;15.10;91.10
41437;DHT22;27178;49.460;10.850;2022-12-31T10:12:35;15.10;91.20
41437;DHT22;27178;49.460;10.850;2022-12-31T10:18:22;15.10;91.30
41437;DHT22;27178;49.460;10.850;2022-12-31T10:21:18;15.10;91.10
41437;DHT22;27178;49.460;10.850;2022-12-31T10:24:04;15.10;91.10
41437;DHT22;27178;49.460;10.850;2022-12-31T10:27:06;15.10;91.00
41437;DHT22;27178;49.460;10.850;2022-12-31T10:29:45;15.10;90.90
41437;DHT22;27178;49.460;10.850;2022-12-31T10:32:17;15.20;91.00
41437;DHT22;27178;49.460;10.850;2022-12-31T10:34:53;15.20;91.00
41437;DHT22;27178;49.460;10.850;2022-12-31T10:37:25;15.20;91.00
41437;DHT22;27178;49.460;10.850;2022-12-31T10:40:06;15.20;91.00
41437;DHT22;27178;49.460;10.850;2022-12-31T10:43:19;15.20;91.10
41437;DHT22;27178;49.460;10.850;2022-12-31T10:52:37;15.30;91.10
41437;DHT22;27178;49.460;10.850;2022-12-31T10:55:42;15.30;91.10
41437;DHT22;27178;49.460;10.850;2022-12-31T11:01:19;15.40;90.90
41437;DHT22;27178;49.460;10.850;2022-12-31T11:10:42;15.50;90.80
41437;DHT22;27178;49.460;10.850;2022-12-31T11:13:41;15.50;90.70
41437;DHT22;27178;49.460;10.850;2022-12-31T11:16:37;15.50;90.70
41437;DHT22;27178;49.460;10.850;2022-12-31T11:19:17;15.50;90.70
41437;DHT22;27178;49.460;10.850;2022-12-31T11:22:05;15.50;90.80
41437;DHT22;27178;49.460;10.850;2022-12-31T11:24:55;15.60;90.80
41437;DHT22;27178;49.460;10.850;2022-12-31T11:27:39;15.60;90.70
41437;DHT22;27178;49.460;10.850;2022-12-31T11:30:20;15.70;90.70
41437;DHT22;27178;49.460;10.850;2022-12-31T11:33:03;15.60;90.70
41437;DHT22;27178;49.460;10.850;2022-12-31T11:35:48;15.70;90.80
41437;DHT22;27178;49.460;10.850;2022-12-31T11:38:21;15.70;90.80
41437;DHT22;27178;49.460;10.850;2022-12-31T11:40:59;15.80;90.70
41437;DHT22;27178;49.460;10.850;2022-12-31T11:43:34;15.80;90.60
41437;DHT22;27178;49.460;10.850;2022-12-31T11:46:31;15.80;90.50
41437;DHT22;27178;49.460;10.850;2022-12-31T11:52:20;15.90;90.50
41437;DHT22;27178;49.460;10.850;2022-12-31T11:55:01;15.90;90.50
41437;DHT22;27178;49.460;10.850;2022-12-31T11:57:33;15.90;90.40
41437;DHT22;27178;49.460;10.850;2022-12-31T12:00:11;16.00;90.60
41437;DHT22;27178;49.460;10.850;2022-12-31T12:02:43;16.00;90.60
41437;DHT22;27178;49.460;10.850;2022-12-31T12:05:14;16.00;90.50
41437;DHT22;27178;49.460;10.850;2022-12-31T12:07:43;16.10;90.40
41437;DHT22;27178;49.460;10.850;2022-12-31T12:10:21;16.10;90.30
41437;DHT22;27178;49.460;10.850;2022-12-31T12:12:59;16.10;90.20
41437;DHT22;27178;49.460;10.850;2022-12-31T12:15:31;16.10;90.20
41437;DHT22;27178;49.460;10.850;2022-12-31T12:18:07;16.20;90.10
41437;DHT22;27178;49.460;10.850;2022-12-31T12:20:37;16.20;90.10
41437;DHT22;27178;49.460;10.850;2022-12-31T12:23:13;16.20;90.10
41437;DHT22;27178;49.460;10.850;2022-12-31T12:25:43;16.20;90.10
41437;DHT22;27178;49.460;10.850;2022-12-31T12:28:19;16.20;90.10
41437;DHT22;27178;49.460;10.850;2022-12-31T12:30:55;16.30;90.20
41437;DHT22;27178;49.460;10.850;2022-12-31T12:33:25;16.30;90.20
41437;DHT22;27178;49.460;10.850;2022-12-31T12:36:06;16.30;90.20
41437;DHT22;27178;49.460;10.850;2022-12-31T12:38:37;16.40;90.10
41437;DHT22;27178;49.460;10.850;2022-12-31T12:41:09;16.40;90.10
41437;DHT22;27178;49.460;10.850;2022-12-31T12:43:38;16.40;90.00
41437;DHT22;27178;49.460;10.850;2022-12-31T12:46:18;16.50;89.90
41437;DHT22;27178;49.460;10.850;2022-12-31T12:48:52;16.50;89.30
41437;DHT22;27178;49.460;10.850;2022-12-31T12:51:31;16.50;89.60
41437;DHT22;27178;49.460;10.850;2022-12-31T12:54:06;16.60;89.20
41437;DHT22;27178;49.460;10.850;2022-12-31T12:56:44;16.60;89.40
41437;DHT22;27178;49.460;10.850;2022-12-31T12:59:45;16.70;89.40
41437;DHT22;27178;49.460;10.850;2022-12-31T13:02:34;16.70;88.80
41437;DHT22;27178;49.460;10.850;2022-12-31T13:05:20;16.80;88.70
41437;DHT22;27178;49.460;10.850;2022-12-31T13:08:03;16.80;88.50
41437;DHT22;27178;49.460;10.850;2022-12-31T13:10:54;16.90;88.40
41437;DHT22;27178;49.460;10.850;2022-12-31T13:13:31;16.90;88.40
41437;DHT22;27178;49.460;10.850;2022-12-31T13:16:07;17.00;88.20
41437;DHT22;27178;49.460;10.850;2022-12-31T13:18:50;17.00;87.90
41437;DHT22;27178;49.460;10.850;2022-12-31T13:21:29;17.10;87.80
41437;DHT22;27178;49.460;10.850;2022-12-31T13:24:01;17.20;87.70
41437;DHT22;27178;49.460;10.850;2022-12-31T13:26:34;17.20;87.90
41437;DHT22;27178;49.460;10.850;2022-12-31T13:29:05;17.30;88.70
41437;DHT22;27178;49.460;10.850;2022-12-31T13:31:39;17.30;87.50
41437;DHT22;27178;49.460;10.850;2022-12-31T13:34:15;17.40;87.30
41437;DHT22;27178;49.460;10.850;2022-12-31T13:36:46;17.40;86.60
41437;DHT22;27178;49.460;10.850;2022-12-31T13:39:18;17.50;86.80
41437;DHT22;27178;49.460;10.850;2022-12-31T13:41:52;17.50;86.50
41437;DHT22;27178;49.460;10.850;2022-12-31T13:44:27;17.50;86.40
41437;DHT22;27178;49.460;10.850;2022-12-31T13:47:01;17.50;86.30
41437;DHT22;27178;49.460;10.850;2022-12-31T13:49:39;17.60;86.30
41437;DHT22;27178;49.460;10.850;2022-12-31T13:52:20;17.60;85.60
41437;DHT22;27178;49.460;10.850;2022-12-31T13:54:55;17.60;85.40
41437;DHT22;27178;49.460;10.850;2022-12-31T13:57:38;17.60;85.40
41437;DHT22;27178;49.460;10.850;2022-12-31T14:00:16;17.60;85.50
41437;DHT22;27178;49.460;10.850;2022-12-31T14:02:54;17.50;85.00
41437;DHT22;27178;49.460;10.850;2022-12-31T14:05:29;17.50;85.10
41437;DHT22;27178;49.460;10.850;2022-12-31T14:08:00;17.50;86.00
41437;DHT22;27178;49.460;10.850;2022-12-31T14:10:41;17.50;85.40
41437;DHT22;27178;49.460;10.850;2022-12-31T14:13:24;17.50;85.40
41437;DHT22;27178;49.460;10.850;2022-12-31T14:16:07;17.40;85.30
41437;DHT22;27178;49.460;10.850;2022-12-31T14:18:44;17.40;85.20
41437;DHT22;27178;49.460;10.850;2022-12-31T14:21:17;17.30;85.00
41437;DHT22;27178;49.460;10.850;2022-12-31T14:23:52;17.30;85.10
41437;DHT22;27178;49.460;10.850;2022-12-31T14:26:26;17.20;85.00
41437;DHT22;27178;49.460;10.850;2022-12-31T14:29:04;17.20;85.40
41437;DHT22;27178;49.460;10.850;2022-12-31T14:31:50;17.20;85.60
41437;DHT22;27178;49.460;10.850;2022-12-31T14:34:32;17.10;85.50
41437;DHT22;27178;49.460;10.850;2022-12-31T14:37:09;17.10;85.50
41437;DHT22;27178;49.460;10.850;2022-12-31T14:39:50;17.00;85.50
41437;DHT22;27178;49.460;10.850;2022-12-31T14:42:28;17.00;85.00
41437;DHT22;27178;49.460;10.850;2022-12-31T14:45:12;17.00;85.40
41437;DHT22;27178;49.460;10.850;2022-12-31T14:47:49;16.90;85.40
41437;DHT22;27178;49.460;10.850;2022-12-31T14:50:22;16.90;85.60
41437;DHT22;27178;49.460;10.850;2022-12-31T14:53:04;16.90;85.70
41437;DHT22;27178;49.460;10.850;2022-12-31T14:55:34;16.80;85.80
41437;DHT22;27178;49.460;10.850;2022-12-31T14:58:19;16.80;86.00
41437;DHT22;27178;49.460;10.850;2022-12-31T15:00:55;16.80;85.70
41437;DHT22;27178;49.460;10.850;2022-12-31T15:03:32;16.70;85.90
41437;DHT22;27178;49.460;10.850;2022-12-31T15:06:44;16.70;85.90
41437;DHT22;27178;49.460;10.850;2022-12-31T15:09:39;16.60;85.90
41437;DHT22;27178;49.460;10.850;2022-12-31T15:12:25;16.60;86.10
41437;DHT22;27178;49.460;10.850;2022-12-31T15:15:08;16.50;85.90
41437;DHT22;27178;49.460;10.850;2022-12-31T15:17:48;16.50;85.90
41437;DHT22;27178;49.460;10.850;2022-12-31T15:20:33;16.40;86.10
41437;DHT22;27178;49.460;10.850;2022-12-31T15:23:12;16.40;87.20
41437;DHT22;27178;49.460;10.850;2022-12-31T15:25:47;16.30;86.30
41437;DHT22;27178;49.460;10.850;2022-12-31T15:28:36;16.30;86.40
41437;DHT22;27178;49.460;10.850;2022-12-31T15:31:14;16.30;86.40
41437;DHT22;27178;49.460;10.850;2022-12-31T15:33:57;16.20;86.60
41437;DHT22;27178;49.460;10.850;2022-12-31T15:36:28;16.20;86.90
41437;DHT22;27178;49.460;10.850;2022-12-31T15:39:05;16.20;87.00
41437;DHT22;27178;49.460;10.850;2022-12-31T15:41:48;16.10;87.10
41437;DHT22;27178;49.460;10.850;2022-12-31T15:44:44;16.10;87.30
41437;DHT22;27178;49.460;10.850;2022-12-31T15:47:20;16.10;87.40
41437;DHT22;27178;49.460;10.850;2022-12-31T15:49:54;16.10;87.60
41437;DHT22;27178;49.460;10.850;2022-12-31T15:52:26;16.00;87.70
41437;DHT22;27178;49.460;10.850;2022-12-31T15:54:57;16.00;87.90
41437;DHT22;27178;49.460;10.850;2022-12-31T15:57:31;16.00;87.90
41437;DHT22;27178;49.460;10.850;2022-12-31T16:00:03;16.00;88.00
41437;DHT22;27178;49.460;10.850;2022-12-31T16:02:32;16.00;88.00
41437;DHT22;27178;49.460;10.850;2022-12-31T16:05:00;16.00;88.00
41437;DHT22;27178;49.460;10.850;2022-12-31T16:07:29;16.00;87.90
41437;DHT22;27178;49.460;10.850;2022-12-31T16:09:59;16.00;88.00
41437;DHT22;27178;49.460;10.850;2022-12-31T16:12:33;16.00;88.00
41437;DHT22;27178;49.460;10.850;2022-12-31T16:15:19;16.00;88.00
41437;DHT22;27178;49.460;10.850;2022-12-31T16:17:58;15.90;87.80
41437;DHT22;27178;49.460;10.850;2022-12-31T16:20:28;15.90;87.90
41437;DHT22;27178;49.460;10.850;2022-12-31T16:23:00;15.90;88.00
41437;DHT22;27178;49.460;10.850;2022-12-31T16:25:30;15.90;88.10
41437;DHT22;27178;49.460;10.850;2022-12-31T16:28:02;15.90;88.10
41437;DHT22;27178;49.460;10.850;2022-12-31T16:30:32;15.90;87.90
41437;DHT22;27178;49.460;10.850;2022-12-31T16:33:04;15.90;88.10
41437;DHT22;27178;49.460;10.850;2022-12-31T16:35:35;15.80;88.00
41437;DHT22;27178;49.460;10.850;2022-12-31T16:38:12;15.80;88.20
41437;DHT22;27178;49.460;10.850;2022-12-31T16:40:42;15.80;88.00